Time;durP1;ratioP1;P1;durP2;ratioP2;P2;SDS_P1;SDS_P2;PMS_P1;PMS_P2;Temp;Humidity;BMP_temperature;BMP_pressure;BME280_temperature;BME280_humidity;BME280_pressure;Samples;Min_cycle;Max_cycle;Signal;HPM_P1;HPM_P2
2022/11/15 00:01:34;;;;;;;48.10;27.20;;;;;;;4.87;89.27;100133.85;210501;1291;142115;-70
2022/11/15 00:06:38;;;;;;;53.30;24.70;;;;;;;4.87;89.37;100122.14;210621;1292;140686;-70
2022/11/15 00:11:41;;;;;;;57.40;28.80;;;;;;;4.90;89.37;100117.27;207587;1292;142693;-69
2022/11/15 00:16:45;;;;;;;60.00;29.10;;;;;;;4.92;89.40;100111.37;207622;1278;142525;-69
2022/11/15 00:21:49;;;;;;;50.40;25.40;;;;;;;4.90;89.18;100112.09;210588;1291;141310;-69
2022/11/15 00:26:52;;;;;;;55.60;26.80;;;;;;;4.83;89.16;100110.44;210659;1286;208530;-69
2022/11/15 00:31:56;;;;;;;67.60;31.90;;;;;;;4.88;89.48;100100.85;210733;1292;141081;-69
2022/11/15 00:36:59;;;;;;;48.60;26.00;;;;;;;4.81;89.20;100095.35;210744;1300;142019;-69
2022/11/15 00:42:03;;;;;;;52.30;25.30;;;;;;;4.81;89.54;100092.05;210527;1293;141778;-69
2022/11/15 00:47:07;;;;;;;56.30;27.40;;;;;;;4.81;89.15;100089.25;210672;1291;140713;-69
2022/11/15 00:52:10;;;;;;;57.00;29.90;;;;;;;4.75;89.12;100087.28;210511;1292;142200;-69
2022/11/15 00:57:13;;;;;;;59.00;29.20;;;;;;;4.71;88.75;100090.25;210805;1292;141767;-69
2022/11/15 01:02:17;;;;;;;44.90;22.50;;;;;;;4.74;89.11;100081.91;210774;1292;140649;-68
2022/11/15 01:07:20;;;;;;;45.60;23.50;;;;;;;4.76;89.11;100077.95;210417;1292;141199;-70
2022/11/15 01:12:24;;;;;;;42.00;21.20;;;;;;;4.79;89.26;100064.68;210529;1289;142120;-69
2022/11/15 01:17:27;;;;;;;57.50;28.40;;;;;;;4.78;89.17;100061.83;210516;1290;140951;-67
2022/11/15 01:22:31;;;;;;;62.20;29.50;;;;;;;4.80;89.00;100058.31;210652;1297;140811;-68
2022/11/15 01:27:35;;;;;;;52.60;23.30;;;;;;;4.82;89.40;100054.73;208559;1292;140891;-68
2022/11/15 01:32:38;;;;;;;49.00;26.70;;;;;;;4.80;89.15;100044.45;210613;1290;142563;-70
2022/11/15 01:37:42;;;;;;;34.50;18.20;;;;;;;4.80;89.23;100036.38;210573;1292;140808;-69
2022/11/15 01:42:46;;;;;;;51.60;28.10;;;;;;;4.81;89.12;100026.71;207816;1300;154812;-69
2022/11/15 01:47:53;;;;;;;57.20;27.70;;;;;;;4.84;89.45;100015.57;209355;1292;141882;-68
2022/11/15 01:52:57;;;;;;;;;;;;;;;4.88;89.20;100011.33;210465;1292;141688;-70
2022/11/15 01:58:04;;;;;;;49.90;21.80;;;;;;;4.86;89.42;100007.75;211149;1291;126907;-70
2022/11/15 02:03:08;;;;;;;54.70;26.80;;;;;;;4.86;89.17;100006.23;210398;1292;143538;-68
2022/11/15 02:08:19;;;;;;;42.90;21.50;;;;;;;4.84;89.38;100002.20;210462;1285;141092;-69
2022/11/15 02:13:23;;;;;;;48.20;26.60;;;;;;;4.87;89.32;99993.41;210668;1295;140993;-68
2022/11/15 02:18:45;;;;;;;52.90;26.40;;;;;;;4.91;89.24;99993.70;210424;1294;140919;-68
2022/11/15 02:24:07;;;;;;;47.90;23.90;;;;;;;4.91;88.84;99990.21;210644;1285;141374;-69
2022/11/15 02:29:39;;;;;;;58.70;24.60;;;;;;;4.84;89.14;99987.20;210218;1293;140894;-68
2022/11/15 02:35:21;;;;;;;44.10;23.10;;;;;;;4.85;89.09;99985.18;210665;1300;141762;-68
2022/11/15 02:40:40;;;;;;;41.00;21.80;;;;;;;4.86;89.10;99981.66;210366;1292;140984;-68
2022/11/15 02:45:51;;;;;;;45.20;19.60;;;;;;;4.82;88.83;99979.15;210600;1289;140277;-66
2022/11/15 02:50:55;;;;;;;38.30;22.40;;;;;;;4.76;88.80;99979.94;208049;1294;146159;-66
2022/11/15 02:55:59;;;;;;;42.80;25.70;;;;;;;4.77;89.26;99970.28;208910;1291;245666;-70
2022/11/15 03:01:05;;;;;;;46.90;25.00;;;;;;;4.75;89.28;99965.11;210427;1292;140681;-72
2022/11/15 03:06:32;;;;;;;50.50;26.80;;;;;;;4.72;89.10;99963.17;210472;1291;140652;-69
2022/11/15 03:11:48;;;;;;;48.10;26.60;;;;;;;4.76;89.11;99963.81;210752;1299;141006;-69
2022/11/15 03:16:55;;;;;;;39.20;19.60;;;;;;;4.78;89.48;99958.18;210711;1292;225025;-69
2022/11/15 03:22:03;;;;;;;44.70;22.60;;;;;;;4.78;88.74;99947.21;210632;1294;140029;-69
2022/11/15 03:27:10;;;;;;;35.50;19.70;;;;;;;4.77;89.11;99945.30;210741;1292;140865;-69
2022/11/15 03:32:19;;;;;;;43.20;24.60;;;;;;;4.79;89.17;99941.37;210661;1292;139574;-69
2022/11/15 03:37:29;;;;;;;37.10;20.60;;;;;;;4.78;89.07;99939.77;210466;1295;139360;-69
2022/11/15 03:42:43;;;;;;;37.00;19.70;;;;;;;4.69;88.71;99936.77;208273;1285;139704;-68
2022/11/15 03:48:18;;;;;;;36.80;19.70;;;;;;;4.65;89.10;99932.88;209935;1292;151832;-69
2022/11/15 03:53:22;;;;;;;41.20;20.30;;;;;;;4.65;89.22;99934.51;210377;1291;140986;-69
2022/11/15 03:58:25;;;;;;;37.60;16.50;;;;;;;4.69;89.14;99924.34;210698;1292;139945;-69
2022/11/15 04:03:29;;;;;;;35.00;18.80;;;;;;;4.66;89.21;99918.19;210650;1289;142368;-69
2022/11/15 04:08:33;;;;;;;39.30;21.40;;;;;;;4.71;89.54;99917.95;210483;1292;142608;-69
2022/11/15 04:13:37;;;;;;;41.80;19.70;;;;;;;4.78;89.47;99913.48;209584;1292;140121;-68
2022/11/15 04:18:41;;;;;;;42.90;22.50;;;;;;;4.79;89.49;99911.75;210731;1292;139904;-69
2022/11/15 04:34:13;;;;;;;33.30;19.00;;;;;;;4.80;88.93;99903.23;210749;1292;142081;-69
2022/11/15 04:39:17;;;;;;;32.40;15.40;;;;;;;4.85;89.38;99901.88;210606;1292;142111;-69
2022/11/15 04:44:21;;;;;;;41.70;21.30;;;;;;;4.84;88.77;99896.55;210590;1292;141335;-69
2022/11/15 04:49:24;;;;;;;30.90;19.00;;;;;;;4.82;88.94;99886.98;210745;1292;140898;-69
2022/11/15 04:54:28;;;;;;;40.60;20.70;;;;;;;4.86;89.17;99888.60;208950;1292;141327;-68
2022/11/15 04:59:32;;;;;;;27.60;16.50;;;;;;;4.96;89.49;99886.94;210588;1298;139918;-69
2022/11/15 05:04:35;;;;;;;32.40;19.20;;;;;;;4.95;88.87;99886.45;210718;1292;141270;-69
2022/11/15 05:09:39;;;;;;;35.70;20.10;;;;;;;4.91;88.97;99888.13;210298;1292;141058;-69
2022/11/15 05:14:42;;;;;;;34.40;17.60;;;;;;;4.86;88.90;99888.44;210306;1292;403800;-69
2022/11/15 05:19:45;;;;;;;37.00;18.90;;;;;;;4.90;88.93;99891.86;210613;1291;142065;-69
2022/11/15 05:24:50;;;;;;;39.30;21.20;;;;;;;4.97;89.06;99883.54;210665;1292;141196;-69
2022/11/15 05:29:54;;;;;;;32.70;17.90;;;;;;;5.03;88.77;99887.02;210707;1292;140786;-69
2022/11/15 05:34:58;;;;;;;35.50;19.90;;;;;;;4.97;88.65;99883.90;210615;1284;140674;-69
2022/11/15 05:40:02;;;;;;;37.20;20.50;;;;;;;4.91;88.32;99874.96;210358;1282;140308;-69
2022/11/15 05:45:08;;;;;;;43.40;18.40;;;;;;;4.76;88.43;99865.45;210429;1292;141502;-69
2022/11/15 05:50:15;;;;;;;33.80;16.70;;;;;;;4.74;88.57;99860.32;210431;1292;142337;-69
2022/11/15 05:55:19;;;;;;;26.60;17.00;;;;;;;4.71;88.69;99859.16;210340;1292;140070;-69
2022/11/15 06:00:22;;;;;;;35.00;19.60;;;;;;;4.69;88.59;99852.84;210577;1293;141005;-69
2022/11/15 06:05:25;;;;;;;33.60;17.60;;;;;;;4.63;88.48;99846.39;210675;1292;140132;-69
2022/11/15 06:10:29;;;;;;;37.10;19.90;;;;;;;4.61;88.66;99847.70;209059;1291;140358;-68
2022/11/15 06:15:36;;;;;;;38.30;20.10;;;;;;;4.60;88.52;99846.09;210511;1298;143160;-69
2022/11/15 06:20:40;;;;;;;21.00;11.30;;;;;;;4.63;88.87;99843.42;209776;1292;143102;-69
2022/11/15 06:25:44;;;;;;;33.10;16.90;;;;;;;4.63;88.61;99832.82;210068;1285;140483;-69
2022/11/15 06:30:47;;;;;;;30.60;15.10;;;;;;;4.58;88.76;99835.36;208522;1292;139668;-69
2022/11/15 06:35:55;;;;;;;28.80;16.60;;;;;;;4.51;88.51;99843.65;210685;1298;225037;-69
2022/11/15 06:41:04;;;;;;;28.20;18.70;;;;;;;4.58;89.12;99846.81;210698;1300;141179;-69
2022/11/15 06:46:08;;;;;;;35.70;17.30;;;;;;;4.69;89.16;99851.79;210398;1295;140838;-69
2022/11/15 06:51:12;;;;;;;25.30;13.50;;;;;;;4.76;88.82;99853.42;210549;1289;141889;-69
2022/11/15 06:56:16;;;;;;;35.90;19.00;;;;;;;4.69;88.44;99849.72;210543;1291;141597;-69
2022/11/15 07:01:20;;;;;;;31.00;17.40;;;;;;;4.67;88.70;99850.29;210561;1285;140844;-69
2022/11/15 07:06:24;;;;;;;34.90;18.90;;;;;;;4.70;88.74;99857.11;210725;1292;140438;-69
2022/11/15 07:11:28;;;;;;;32.90;19.10;;;;;;;4.70;88.50;99860.66;210896;1293;140741;-69
2022/11/15 07:16:32;;;;;;;30.50;16.80;;;;;;;4.74;88.57;99850.81;210783;1292;141754;-68
2022/11/15 07:21:36;;;;;;;30.30;16.90;;;;;;;4.75;88.72;99857.12;210788;1299;141095;-68
2022/11/15 07:26:40;;;;;;;37.20;19.50;;;;;;;4.86;88.90;99857.83;210764;1292;141340;-68
2022/11/15 07:31:44;;;;;;;36.30;16.20;;;;;;;4.98;88.57;99854.20;210704;1292;140319;-68
2022/11/15 07:36:47;;;;;;;26.00;16.60;;;;;;;4.98;88.43;99857.20;210440;1292;140693;-69
2022/11/15 07:42:52;;;;;;;34.10;16.90;;;;;;;5.06;88.91;99855.13;210429;1292;141267;-68
2022/11/15 07:47:15;;;;;;;34.00;16.40;;;;;;;5.15;88.73;99846.45;210868;1292;139880;-68
2022/11/15 07:52:18;;;;;;;29.80;16.10;;;;;;;5.22;88.53;99851.83;210674;1298;140020;-68
2022/11/15 07:57:22;;;;;;;36.00;19.40;;;;;;;5.26;88.15;99848.70;210494;1285;141703;-69
2022/11/15 08:02:25;;;;;;;44.10;22.10;;;;;;;5.41;88.45;99843.77;210621;1292;140661;-69
2022/11/15 08:07:32;;;;;;;26.60;15.70;;;;;;;5.57;88.36;99839.94;209227;1292;140874;-68
2022/11/15 08:12:36;;;;;;;31.30;17.10;;;;;;;5.61;87.89;99834.55;210536;1292;139865;-68
2022/11/15 08:17:40;;;;;;;25.70;17.80;;;;;;;5.52;87.34;99837.20;210234;1292;141275;-68
2022/11/15 08:22:43;;;;;;;23.00;15.20;;;;;;;5.50;87.92;99826.14;210885;1300;140226;-69
2022/11/15 08:27:47;;;;;;;30.90;18.70;;;;;;;5.59;87.72;99820.95;210547;1293;141020;-69
2022/11/15 08:32:52;;;;;;;33.50;17.40;;;;;;;5.67;87.64;99811.56;210692;1300;140583;-69
2022/11/15 08:37:56;;;;;;;34.00;20.20;;;;;;;5.76;87.70;99799.91;210377;1292;139795;-68
2022/11/15 08:43:02;;;;;;;35.90;22.10;;;;;;;5.92;88.03;99799.58;210676;1292;140025;-68
2022/11/15 08:48:06;;;;;;;39.90;21.60;;;;;;;6.01;87.52;99794.66;210659;1292;142603;-68
2022/11/15 08:53:10;;;;;;;36.00;17.80;;;;;;;6.13;87.42;99788.42;210836;1286;161935;-68
2022/11/15 08:58:13;;;;;;;30.40;20.30;;;;;;;6.21;87.36;99790.54;210226;1292;140567;-68
2022/11/15 09:03:17;;;;;;;41.90;23.80;;;;;;;6.40;87.40;99794.92;210680;1298;141203;-69
2022/11/15 09:08:20;;;;;;;41.60;23.40;;;;;;;6.59;87.82;99795.20;210578;1284;141017;-68
2022/11/15 09:13:44;;;;;;;41.40;23.80;;;;;;;6.79;87.41;99801.02;210826;1296;140122;-68
2022/11/15 09:18:48;;;;;;;28.80;18.80;;;;;;;6.98;87.28;99798.08;210663;1292;140011;-69
2022/11/15 09:23:52;;;;;;;34.90;23.40;;;;;;;7.15;86.95;99792.48;210551;1292;140687;-68
2022/11/15 09:28:56;;;;;;;41.00;23.80;;;;;;;7.45;87.51;99784.25;210898;1292;140578;-69
2022/11/15 09:33:59;;;;;;;40.80;23.90;;;;;;;7.67;87.01;99773.92;210740;1285;140745;-69
2022/11/15 09:39:03;;;;;;;36.80;19.20;;;;;;;7.91;87.00;99767.36;210761;1299;141166;-68
2022/11/15 09:44:17;;;;;;;36.10;21.20;;;;;;;8.11;86.60;99761.86;210718;1299;141572;-69
2022/11/15 09:49:30;;;;;;;32.10;19.30;;;;;;;8.23;86.24;99755.86;210717;1292;141584;-69
2022/11/15 09:54:46;;;;;;;31.90;22.30;;;;;;;8.51;86.66;99753.64;210620;1292;141743;-69
2022/11/15 10:00:17;;;;;;;34.40;20.20;;;;;;;8.83;86.46;99739.86;210526;1291;220281;-69
2022/11/15 10:05:54;;;;;;;30.70;19.90;;;;;;;9.13;86.25;99739.20;210794;1292;140104;-69
2022/11/15 10:11:15;;;;;;;32.10;21.40;;;;;;;9.38;85.72;99728.21;210669;1292;140193;-70
2022/11/15 10:16:58;;;;;;;32.20;20.80;;;;;;;9.63;85.50;99722.64;210895;1292;225201;-69
2022/11/15 10:22:14;;;;;;;34.40;21.80;;;;;;;9.79;84.57;99708.45;210140;1292;139205;-69
2022/11/15 10:27:19;;;;;;;36.70;22.40;;;;;;;9.90;84.41;99703.11;210753;1292;141436;-70
2022/11/15 10:32:23;;;;;;;35.30;17.80;;;;;;;10.02;83.65;99697.66;210817;1292;140797;-70
2022/11/15 10:37:31;;;;;;;31.60;21.50;;;;;;;10.05;82.95;99695.00;208036;1299;140960;-69
2022/11/15 10:42:35;;;;;;;29.00;18.10;;;;;;;10.08;83.10;99693.79;210590;1293;142247;-70
2022/11/15 10:47:38;;;;;;;30.50;20.60;;;;;;;10.28;82.89;99681.89;209144;1292;140978;-69
2022/11/15 10:52:47;;;;;;;32.20;20.50;;;;;;;10.50;83.21;99675.31;207704;1290;140518;-70
2022/11/15 10:57:54;;;;;;;27.90;17.60;;;;;;;10.77;82.71;99671.05;207737;1286;140790;-69
2022/11/15 11:03:02;;;;;;;26.80;19.60;;;;;;;10.94;82.25;99674.16;209908;1292;142451;-69
2022/11/15 11:08:11;;;;;;;28.80;19.50;;;;;;;11.04;81.82;99677.84;210740;1292;139620;-69
2022/11/15 11:13:23;;;;;;;26.50;19.00;;;;;;;11.16;81.28;99667.41;210601;1292;141549;-70
2022/11/15 11:18:54;;;;;;;29.90;17.90;;;;;;;11.30;80.83;99656.55;210451;1292;140715;-69
2022/11/15 11:24:10;;;;;;;22.80;17.70;;;;;;;11.46;80.50;99659.86;210520;1288;141432;-70
2022/11/15 11:29:14;;;;;;;22.40;16.50;;;;;;;11.51;79.96;99649.27;210963;1297;141250;-70
2022/11/15 11:34:36;;;;;;;24.10;16.30;;;;;;;11.64;79.86;99649.88;210662;1292;140127;-70
2022/11/15 11:39:55;;;;;;;25.20;18.90;;;;;;;11.72;79.57;99638.64;210716;1293;140127;-70
2022/11/15 11:45:30;;;;;;;30.30;20.40;;;;;;;11.84;79.12;99634.84;210004;1292;140674;-70
2022/11/15 11:50:37;;;;;;;22.80;16.40;;;;;;;11.89;78.58;99637.17;209709;1291;139905;-69
2022/11/15 11:55:54;;;;;;;29.20;19.70;;;;;;;11.80;78.07;99632.80;210641;1289;140683;-69
2022/11/15 12:01:25;;;;;;;33.30;20.00;;;;;;;11.67;77.39;99623.45;210514;1292;151367;-69
2022/11/15 12:06:35;;;;;;;25.90;18.20;;;;;;;11.61;77.42;99610.44;210485;1285;140364;-71
2022/11/15 12:12:08;;;;;;;22.70;17.90;;;;;;;11.66;77.73;99591.98;210538;1292;140455;-69
2022/11/15 12:17:14;;;;;;;25.00;17.30;;;;;;;11.80;77.67;99591.84;208857;1296;140807;-70
2022/11/15 12:22:40;;;;;;;24.10;16.30;;;;;;;11.79;76.99;99586.92;207401;1278;141289;-72
2022/11/15 12:27:55;;;;;;;29.10;17.80;;;;;;;11.66;76.32;99588.08;209347;1292;140533;-71
2022/11/15 12:33:01;;;;;;;25.70;17.90;;;;;;;11.65;76.53;99582.89;210640;1292;140589;-71
2022/11/15 12:38:09;;;;;;;27.60;17.50;;;;;;;11.59;76.11;99571.11;210617;1291;140462;-72
2022/11/15 12:43:15;;;;;;;26.60;20.00;;;;;;;11.59;76.44;99575.61;208648;1295;141221;-72
2022/11/15 12:48:18;;;;;;;21.60;15.80;;;;;;;11.65;76.58;99565.59;210707;1290;141427;-72
2022/11/15 12:53:25;;;;;;;23.60;18.20;;;;;;;11.75;76.54;99566.10;208374;1298;140715;-71
2022/11/15 12:58:57;;;;;;;25.90;18.00;;;;;;;11.79;76.32;99564.90;207588;1291;139731;-71
2022/11/15 13:04:19;;;;;;;20.00;14.40;;;;;;;11.76;76.40;99562.67;207519;1295;140631;-71
2022/11/15 13:09:32;;;;;;;30.60;19.30;;;;;;;11.72;75.92;99553.09;210735;1288;140110;-71
2022/11/15 13:14:40;;;;;;;26.50;19.50;;;;;;;11.70;75.73;99553.59;210590;1298;140420;-70
2022/11/15 13:19:46;;;;;;;22.70;17.90;;;;;;;11.74;75.87;99546.69;210728;1292;141419;-71
2022/11/15 13:24:51;;;;;;;24.40;16.50;;;;;;;11.73;75.79;99546.16;210691;1292;139572;-71
2022/11/15 13:29:56;;;;;;;23.80;16.80;;;;;;;11.70;75.66;99543.23;210655;1292;140033;-71
2022/11/15 13:35:00;;;;;;;24.30;17.30;;;;;;;11.65;75.41;99541.45;210818;1288;140965;-72
2022/11/15 13:40:27;;;;;;;22.00;16.60;;;;;;;11.61;75.37;99539.70;210422;1300;140679;-71
2022/11/15 13:45:31;;;;;;;24.80;16.70;;;;;;;11.59;75.49;99541.49;210717;1294;141646;-72
2022/11/15 13:50:38;;;;;;;21.60;15.90;;;;;;;11.53;75.17;99534.99;210657;1298;140864;-71
2022/11/15 13:55:42;;;;;;;22.90;15.20;;;;;;;11.46;75.30;99528.33;209168;1293;140248;-70
2022/11/15 14:00:47;;;;;;;24.10;15.10;;;;;;;11.34;75.34;99526.64;210679;1292;141003;-71
2022/11/15 14:06:06;;;;;;;18.20;13.50;;;;;;;11.21;75.26;99523.41;208124;1292;139830;-68
2022/11/15 14:11:20;;;;;;;19.30;14.20;;;;;;;11.07;75.14;99519.72;210004;1292;140495;-70
2022/11/15 14:16:36;;;;;;;20.90;14.70;;;;;;;10.93;75.16;99517.86;210803;1292;141557;-70
2022/11/15 14:22:16;;;;;;;20.80;13.20;;;;;;;10.73;74.98;99514.54;210689;1298;140087;-70
2022/11/15 14:27:29;;;;;;;18.50;13.50;;;;;;;10.48;75.11;99509.09;210724;1297;225540;-72
2022/11/15 14:32:44;;;;;;;19.60;12.90;;;;;;;10.22;75.02;99505.46;210773;1292;142235;-72
2022/11/15 14:37:49;;;;;;;21.10;13.50;;;;;;;9.97;74.78;99504.30;209192;1297;141143;-73
2022/11/15 14:42:53;;;;;;;21.70;15.50;;;;;;;9.70;74.81;99507.05;208462;1299;140950;-74
2022/11/15 14:47:56;;;;;;;23.30;15.60;;;;;;;9.45;74.98;99502.53;208826;1292;140349;-71
2022/11/15 14:53:01;;;;;;;18.70;13.50;;;;;;;9.20;75.23;99494.68;207747;1299;140524;-73
2022/11/15 14:58:07;;;;;;;18.50;12.80;;;;;;;8.93;75.04;99486.14;209705;1291;139784;-73
2022/11/15 15:03:12;;;;;;;20.00;14.20;;;;;;;8.65;74.83;99480.38;209662;1289;141026;-71
2022/11/15 15:08:16;;;;;;;24.20;16.00;;;;;;;8.40;75.09;99483.72;210625;1296;139973;-71
2022/11/15 15:13:22;;;;;;;21.60;13.50;;;;;;;8.16;75.16;99479.92;210466;1291;140732;-71
2022/11/15 15:18:26;;;;;;;16.30;11.10;;;;;;;7.94;75.10;99483.35;210587;1291;139774;-71
2022/11/15 15:23:30;;;;;;;24.90;14.80;;;;;;;7.73;75.16;99492.41;210686;1292;140564;-71
2022/11/15 15:28:34;;;;;;;23.50;15.90;;;;;;;7.56;75.51;99494.66;210603;1298;141119;-72
2022/11/15 15:33:39;;;;;;;21.40;14.70;;;;;;;7.43;75.44;99499.88;210542;1292;141384;-75
2022/11/15 15:38:46;;;;;;;23.00;14.80;;;;;;;7.24;75.11;99500.49;210342;1294;141978;-71
2022/11/15 15:43:50;;;;;;;24.80;19.70;;;;;;;7.03;75.53;99508.70;210643;1303;140672;-72
2022/11/15 15:48:53;;;;;;;31.80;21.50;;;;;;;6.91;75.82;99507.30;210486;1291;140170;-72
2022/11/15 15:53:57;;;;;;;45.30;25.00;;;;;;;6.82;76.39;99504.80;210060;1298;139318;-71
2022/11/15 15:59:01;;;;;;;50.30;28.10;;;;;;;6.75;76.94;99504.40;207464;1287;140780;-74
2022/11/15 16:04:05;;;;;;;53.60;31.60;;;;;;;6.71;77.52;99501.79;207363;1298;140939;-70
2022/11/15 16:09:59;;;;;;;56.00;34.10;;;;;;;6.69;77.75;99495.30;208529;1295;141411;-72
2022/11/15 16:14:46;;;;;;;67.60;40.20;;;;;;;6.69;78.47;99492.09;210273;1295;142229;-79
2022/11/15 16:19:49;;;;;;;64.60;37.20;;;;;;;6.71;78.90;99490.89;209398;1287;140740;-75
2022/11/15 16:24:55;;;;;;;71.50;34.60;;;;;;;6.78;79.41;99488.20;209099;1295;140392;-66
2022/11/15 16:29:58;;;;;;;58.60;37.50;;;;;;;6.78;79.12;99481.65;207904;1292;141250;-70
2022/11/15 16:35:02;;;;;;;74.40;41.10;;;;;;;6.72;79.29;99487.97;210254;1286;140161;-69
2022/11/15 16:40:30;;;;;;;55.30;30.40;;;;;;;6.66;79.91;99491.37;209533;1279;139495;-72
2022/11/15 16:45:34;;;;;;;70.50;36.70;;;;;;;6.58;79.91;99488.77;208527;1293;139869;-70
2022/11/15 16:50:38;;;;;;;65.80;34.70;;;;;;;6.51;80.00;99493.01;207812;1285;141091;-73
2022/11/15 16:55:42;;;;;;;64.50;34.70;;;;;;;6.49;80.47;99483.81;207196;1288;140946;-72
2022/11/15 17:00:51;;;;;;;65.30;33.10;;;;;;;6.46;80.53;99480.38;207371;1284;140989;-72
2022/11/15 17:06:01;;;;;;;60.20;35.50;;;;;;;6.41;81.01;99474.80;207369;1286;140513;-75
2022/11/15 17:11:07;;;;;;;56.20;29.80;;;;;;;6.38;81.04;99474.25;210047;1286;140592;-73
2022/11/15 17:16:15;;;;;;;65.60;36.40;;;;;;;6.36;81.20;99473.29;209901;1295;504927;-74
2022/11/15 17:21:21;;;;;;;;;;;;;;;6.39;81.70;99464.23;210342;1302;143323;-72
2022/11/15 17:26:26;;;;;;;66.60;36.90;;;;;;;6.43;81.66;99463.23;210787;1295;126203;-73
2022/11/15 17:31:37;;;;;;;60.20;34.40;;;;;;;6.47;81.50;99459.59;210597;1295;140828;-73
2022/11/15 17:36:41;;;;;;;58.60;32.50;;;;;;;6.33;81.42;99459.49;210370;1290;140668;-73
2022/11/15 17:41:48;;;;;;;54.80;30.80;;;;;;;6.24;81.54;99452.17;210179;1293;141810;-72
2022/11/15 17:46:51;;;;;;;56.80;31.40;;;;;;;6.17;81.62;99446.96;210462;1295;142015;-73
2022/11/15 17:51:55;;;;;;;52.60;31.60;;;;;;;6.13;81.64;99443.65;210420;1292;141109;-71
2022/11/15 17:57:00;;;;;;;61.20;31.00;;;;;;;6.10;81.70;99441.70;210415;1295;140937;-71
2022/11/15 18:02:08;;;;;;;60.00;33.60;;;;;;;6.10;82.15;99440.48;209870;1295;238331;-71
2022/11/15 18:07:12;;;;;;;57.70;32.60;;;;;;;6.04;82.06;99431.91;210139;1301;140479;-71
2022/11/15 18:12:16;;;;;;;56.10;31.50;;;;;;;6.01;82.27;99420.41;208176;1293;141760;-73
2022/11/15 18:17:20;;;;;;;53.40;31.70;;;;;;;6.02;82.38;99417.19;207340;1288;140894;-73
2022/11/15 18:22:23;;;;;;;61.80;33.50;;;;;;;6.02;82.43;99414.30;210464;1292;140595;-74
2022/11/15 18:27:27;;;;;;;66.30;32.20;;;;;;;6.04;82.87;99425.11;210522;1293;141479;-72
2022/11/15 18:32:31;;;;;;;55.10;31.90;;;;;;;5.96;82.73;99430.36;210204;1290;140965;-71
2022/11/15 18:37:34;;;;;;;59.10;31.60;;;;;;;5.92;82.58;99426.15;210306;1301;140700;-72
2022/11/15 18:42:38;;;;;;;63.30;34.90;;;;;;;5.90;82.59;99426.79;207489;1288;142125;-71
2022/11/15 18:47:42;;;;;;;58.70;33.80;;;;;;;5.88;82.99;99422.63;210500;1281;142084;-72
2022/11/15 18:52:45;;;;;;;65.00;37.50;;;;;;;5.87;83.08;99418.70;210243;1293;141335;-71
2022/11/15 18:57:49;;;;;;;57.40;33.50;;;;;;;5.84;83.23;99415.62;210312;1285;140709;-73
2022/11/15 19:02:53;;;;;;;50.60;30.80;;;;;;;5.74;83.00;99411.48;210388;1292;141942;-73
2022/11/15 19:07:57;;;;;;;55.60;32.80;;;;;;;5.63;82.84;99414.58;210323;1291;140408;-73
2022/11/15 19:13:01;;;;;;;55.00;30.30;;;;;;;5.55;82.99;99413.38;209296;1287;142048;-72
2022/11/15 19:18:06;;;;;;;55.60;30.40;;;;;;;5.54;83.43;99412.41;207032;1286;141024;-71
2022/11/15 19:23:11;;;;;;;61.70;34.10;;;;;;;5.56;83.47;99407.70;210276;1271;140780;-73
2022/11/15 19:28:15;;;;;;;53.40;31.30;;;;;;;5.53;83.48;99397.09;210401;1300;139927;-76
2022/11/15 19:33:20;;;;;;;51.50;30.40;;;;;;;5.50;83.52;99402.27;210369;1293;140956;-75
2022/11/15 19:38:31;;;;;;;67.40;35.20;;;;;;;5.44;83.63;99406.17;210470;1278;142952;-75
2022/11/15 19:43:35;;;;;;;72.60;38.30;;;;;;;5.39;83.53;99412.08;210426;1287;140482;-76
2022/11/15 19:48:40;;;;;;;62.50;30.70;;;;;;;5.42;84.02;99408.02;210050;1290;143348;-74
2022/11/15 19:53:44;;;;;;;63.00;33.40;;;;;;;5.44;84.24;99406.55;210279;1294;140712;-72
2022/11/15 19:58:53;;;;;;;58.60;29.60;;;;;;;5.49;84.40;99408.76;210208;1295;140997;-73
2022/11/15 20:03:58;;;;;;;60.70;34.90;;;;;;;5.53;84.39;99408.55;210183;1295;142501;-72
2022/11/15 20:09:02;;;;;;;55.00;31.00;;;;;;;5.53;84.29;99403.67;210204;1295;141675;-70
2022/11/15 20:14:08;;;;;;;62.30;33.10;;;;;;;5.52;84.54;99394.33;210427;1294;141726;-70
2022/11/15 20:19:14;;;;;;;67.50;32.90;;;;;;;5.50;84.51;99398.42;210147;1288;141240;-75
2022/11/15 20:24:18;;;;;;;65.90;33.20;;;;;;;5.51;84.72;99399.34;210124;1284;142422;-74
2022/11/15 20:29:22;;;;;;;65.30;36.70;;;;;;;5.50;85.01;99394.36;210237;1288;141945;-73
2022/11/15 20:34:27;;;;;;;69.00;32.10;;;;;;;5.55;85.38;99383.13;210240;1287;141678;-74
2022/11/15 20:39:31;;;;;;;67.00;34.30;;;;;;;5.59;85.11;99376.13;210248;1288;141309;-71
2022/11/15 20:44:35;;;;;;;67.40;31.90;;;;;;;5.64;85.40;99380.04;210201;1294;140159;-69
2022/11/15 20:49:39;;;;;;;68.70;34.50;;;;;;;5.69;85.29;99381.85;210450;1285;140743;-72
2022/11/15 20:54:43;;;;;;;62.90;31.00;;;;;;;5.68;85.39;99384.58;210257;1293;141045;-68
2022/11/15 20:59:47;;;;;;;71.30;33.20;;;;;;;5.66;85.37;99384.17;209668;1278;141290;-70
2022/11/15 21:04:51;;;;;;;73.50;36.40;;;;;;;5.66;85.19;99378.73;209888;1294;141865;-69
2022/11/15 21:15:22;;;;;;;74.30;32.00;;;;;;;5.77;85.49;99364.08;210008;1294;251032;-69
2022/11/15 21:20:26;;;;;;;67.10;33.70;;;;;;;5.81;85.73;99361.41;209773;1295;142356;-68
2022/11/15 21:25:32;;;;;;;73.40;36.10;;;;;;;5.80;85.66;99357.27;210534;1300;141108;-72
2022/11/15 21:30:37;;;;;;;64.50;34.80;;;;;;;5.79;85.78;99354.63;210329;1295;246081;-72
2022/11/15 21:35:41;;;;;;;74.20;31.90;;;;;;;5.82;85.87;99352.88;210192;1302;141045;-67
2022/11/15 21:40:45;;;;;;;68.80;33.10;;;;;;;5.85;85.81;99350.61;210201;1288;141729;-68
2022/11/15 21:45:59;;;;;;;59.20;26.80;;;;;;;5.85;86.04;99341.55;210274;1301;140125;-69
2022/11/15 21:51:09;;;;;;;69.80;27.60;;;;;;;5.87;85.86;99324.89;210337;1300;140515;-76
2022/11/15 21:56:14;;;;;;;68.30;29.80;;;;;;;5.90;85.50;99325.06;210405;1294;140000;-72
2022/11/15 22:06:40;;;;;;;68.30;31.50;;;;;;;5.82;85.69;99344.79;210412;1292;141119;-68
2022/11/15 22:11:44;;;;;;;60.60;29.50;;;;;;;5.79;85.94;99338.35;210336;1292;141936;-68
2022/11/15 22:16:48;;;;;;;59.90;27.60;;;;;;;5.78;85.68;99331.55;210305;1292;141084;-67
2022/11/15 22:21:51;;;;;;;56.60;27.10;;;;;;;5.80;85.70;99320.55;210127;1291;141194;-71
2022/11/15 22:26:55;;;;;;;60.70;30.30;;;;;;;5.85;86.01;99312.45;210559;1292;141960;-69
2022/11/15 22:31:59;;;;;;;59.30;27.50;;;;;;;5.89;85.97;99307.03;209524;1300;140583;-67
2022/11/15 22:37:03;;;;;;;65.10;28.50;;;;;;;5.85;86.01;99304.23;210290;1293;139978;-70
2022/11/15 22:42:24;;;;;;;55.90;28.00;;;;;;;5.76;85.50;99306.02;210382;1295;223570;-71
2022/11/15 22:47:27;;;;;;;40.40;19.50;;;;;;;5.69;85.80;99302.48;207616;1285;142227;-71
2022/11/15 22:52:31;;;;;;;53.70;22.80;;;;;;;5.61;85.68;99296.05;210317;1295;155850;-69
2022/11/15 22:57:37;;;;;;;48.60;22.80;;;;;;;5.58;86.37;99291.66;210356;1291;141009;-71
2022/11/15 23:02:41;;;;;;;51.80;23.90;;;;;;;5.58;86.11;99287.97;210225;1301;141525;-68
2022/11/15 23:07:44;;;;;;;50.70;23.30;;;;;;;5.57;85.95;99290.78;209719;1287;140791;-70
2022/11/15 23:18:11;;;;;;;50.90;22.80;;;;;;;5.51;86.11;99298.56;210242;1297;140292;-72
2022/11/15 23:23:15;;;;;;;42.30;20.70;;;;;;;5.46;86.18;99291.81;207613;1282;140954;-69
2022/11/15 23:28:19;;;;;;;40.30;16.70;;;;;;;5.41;86.17;99293.17;210157;1294;140636;-69
2022/11/15 23:38:46;;;;;;;43.90;20.80;;;;;;;5.29;85.95;99294.15;208709;1290;141025;-72
2022/11/15 23:43:50;;;;;;;39.80;19.90;;;;;;;5.26;86.02;99288.08;210250;1294;140871;-68